Date,TemperatureHighF,TemperatureAvgF,TemperatureLowF,DewpointHighF,DewpointAvgF,DewpointLowF,HumidityHigh,HumidityAvg,HumidityLow,PressureMaxIn,PressureMinIn,WindSpeedMaxMPH,WindSpeedAvgMPH,GustSpeedMaxMPH,PrecipitationSumIn
2013-1-1,32,28,18,31,25,15,97,87,73,30.24,30.09,11,2,11,0.01
2013-1-2,25,17,8,18,13,6,94,85,65,30.35,30.21,8,1,8,0.00
2013-1-3,32,20,4,23,14,2,92,80,57,30.39,30.29,19,3,19,0.00
2013-1-4,33,28,24,25,22,18,84,76,66,30.41,30.33,21,6,25,0.00
2013-1-5,38,30,18,29,24,16,94,79,66,30.47,30.24,12,2,12,0.06
2013-1-6,38,34,27,33,29,23,92,82,76,30.39,30.08,22,6,22,0.02
2013-1-7,38,30,25,29,25,22,92,82,65,30.57,30.35,10,2,10,0.00
2013-1-8,49,32,20,36,27,19,94,80,58,30.43,30.32,10,2,10,0.00
2013-1-9,48,40,31,41,35,26,90,81,73,30.59,30.29,16,3,16,0.06
2013-1-10,40,34,25,33,30,24,95,86,75,30.64,30.24,18,4,18,0.00
2013-1-11,61,51,40,54,46,33,94,83,70,30.25,29.96,24,7,24,0.32
2013-1-12,65,59,53,61,56,50,97,89,76,30.10,29.89,16,4,16,0.01
2013-1-13,65,61,39,61,57,37,96,87,77,30.11,29.82,35,8,35,0.42
2013-1-14,39,30,26,37,25,22,94,82,72,30.49,30.11,21,5,21,0.00
2013-1-15,32,28,22,25,23,20,92,81,71,30.48,30.16,18,5,18,0.00
2013-1-16,35,32,30,30,26,24,91,81,75,30.17,30.02,15,3,15,0.00
2013-1-17,38,33,27,31,28,18,89,81,66,30.41,30.14,22,3,22,0.00
2013-1-18,35,27,17,25,18,11,95,69,56,30.61,30.31,21,5,21,0.00
2013-1-19,53,41,35,30,25,23,64,54,33,30.31,29.93,31,10,32,0.00
2013-1-20,45,36,24,33,22,12,69,57,39,30.26,29.92,31,10,31,0.00
2013-1-21,24,22,10,17,12,-1,84,67,54,30.29,30.11,26,8,26,0.00
2013-1-22,16,9,6,1,-2,-4,69,59,48,30.46,30.29,21,8,21,0.00
2013-1-23,20,15,9,15,6,0,91,68,44,30.44,30.18,17,4,17,0.00
2013-1-24,21,16,13,14,10,6,91,75,59,30.67,30.18,22,4,22,0.00
2013-1-25,23,19,15,20,13,7,91,79,65,30.59,30.13,17,4,17,0.00
2013-1-26,28,25,18,23,19,12,91,79,68,30.55,30.20,13,4,13,0.00
2013-1-27,33,24,12,29,18,9,90,77,63,30.59,30.33,14,4,14,0.00
2013-1-28,50,41,31,49,39,29,97,93,85,30.33,30.09,20,5,20,0.56
2013-1-29,69,59,50,56,53,49,97,80,61,30.12,29.70,27,7,27,0.00
2013-1-30,66,56,34,58,50,28,94,81,70,29.70,29.28,37,11,42,0.47
2013-1-31,35,26,19,29,20,12,93,76,59,30.01,29.50,37,11,37,0.00
2013-2-1,19,12,7,13,5,1,85,73,65,30.47,30.01,25,7,25,0.00
2013-2-2,26,20,9,25,16,4,93,85,75,30.45,30.08,19,4,19,0.00
2013-2-3,26,22,20,23,18,12,95,84,71,30.19,29.98,18,4,18,0.00
2013-2-4,31,21,15,29,16,12,95,83,62,30.20,29.93,13,2,13,0.00
2013-2-5,33,29,27,29,26,23,96,86,78,30.07,29.94,14,2,14,0.00
2013-2-6,37,31,22,29,24,18,86,75,54,30.38,30.07,13,3,13,0.04
2013-2-7,48,36,23,34,28,18,86,74,54,30.34,29.91,16,4,16,0.01
2013-2-8,46,35,26,40,29,18,93,79,69,30.38,29.83,26,9,26,0.18
2013-2-9,35,27,18,22,19,16,93,72,55,30.52,30.36,18,3,18,0.00
2013-2-10,50,38,27,41,27,19,81,65,47,30.36,29.91,13,6,19,0.02
2013-2-11,53,46,39,47,36,26,91,69,45,30.06,29.81,39,11,39,0.00
2013-2-12,47,37,30,30,27,25,83,66,45,30.19,29.98,32,5,32,0.00
2013-2-13,32,30,25,30,27,24,95,89,83,29.99,29.82,8,2,8,0.00
2013-2-14,46,33,23,39,31,22,97,90,73,30.04,29.90,21,5,21,0.17
2013-2-15,38,32,27,32,28,24,95,86,75,30.20,30.04,18,2,18,0.02
2013-2-16,29,23,16,24,18,10,95,80,60,30.18,30.06,21,4,21,0.00
2013-2-17,26,18,11,14,10,7,85,70,45,30.35,30.15,18,4,18,0.00
2013-2-18,52,35,17,34,22,10,77,60,44,30.36,29.85,31,7,31,0.01
2013-2-19,50,33,22,39,27,14,95,79,49,30.14,29.73,44,11,44,0.12
2013-2-20,23,20,17,16,12,9,80,72,59,30.38,30.13,24,9,24,0.00
2013-2-21,28,24,21,19,16,12,82,73,68,30.45,30.28,19,5,19,0.00
2013-2-22,42,34,26,40,30,18,96,87,74,30.29,30.00,26,6,26,0.01
2013-2-23,42,36,31,34,29,25,91,76,56,30.06,29.96,17,3,17,0.00
2013-2-24,34,30,27,25,22,20,86,73,59,30.24,29.99,17,4,17,0.00
2013-2-25,44,33,20,27,24,18,93,69,47,30.29,30.06,18,4,18,0.00
2013-2-26,44,36,34,42,28,24,96,74,63,30.06,29.53,27,9,27,0.45
2013-2-27,44,38,33,41,35,31,95,90,83,29.77,29.56,24,7,24,0.19
2013-2-28,37,34,31,34,31,29,95,91,83,29.98,29.72,17,6,17,0.04
2013-3-1,34,31,27,29,25,20,87,79,69,30.11,29.97,11,5,13,0.00
2013-3-2,29,27,25,23,22,20,88,81,72,30.13,30.07,13,5,15,0.00
2013-3-3,30,26,24,21,18,15,87,72,54,30.15,30.08,14,4,14,0.00
2013-3-4,41,29,16,23,18,14,96,66,39,30.25,30.12,12,1,12,0.00
2013-3-5,41,35,30,31,27,23,96,75,58,30.17,29.60,21,6,21,0.12
2013-3-6,38,34,32,33,31,28,97,88,80,30.28,29.59,15,4,15,0.60
2013-3-7,41,35,31,32,29,27,87,78,60,30.42,30.26,16,4,16,0.00
2013-3-8,45,36,28,31,27,23,88,71,48,30.54,30.42,14,3,14,0.00
2013-3-9,57,42,26,34,29,24,91,65,36,30.47,30.14,16,4,16,0.00
2013-3-10,70,58,47,37,34,30,56,41,26,30.15,29.90,20,5,20,0.00
2013-3-11,64,54,42,51,42,35,92,66,36,29.92,29.63,29,7,29,0.35
2013-3-12,42,37,34,36,31,28,92,80,65,30.08,29.85,20,5,20,0.01
2013-3-13,34,30,28,31,24,17,94,78,59,30.33,30.04,28,8,28,0.00
2013-3-14,42,28,22,26,18,16,87,67,40,30.40,30.22,23,5,23,0.00
2013-3-15,49,39,26,41,31,20,92,72,60,30.23,29.91,15,3,15,0.09
2013-3-16,55,43,32,48,39,28,95,88,73,30.09,29.66,22,5,22,0.11
2013-3-17,38,34,31,29,27,24,87,75,60,30.24,30.09,17,6,17,0.00
2013-3-18,50,40,32,49,38,26,96,91,75,30.15,29.67,29,7,29,0.88
2013-3-19,42,36,30,36,24,14,83,63,36,30.11,29.85,35,11,35,0.00
2013-3-20,37,31,23,22,18,11,76,57,43,30.11,29.98,27,8,27,0.00
2013-3-21,29,22,18,21,14,9,87,72,53,30.08,30.00,18,4,18,0.00
2013-3-22,42,26,21,26,18,16,82,71,37,30.13,30.06,19,3,19,0.00
2013-3-23,48,34,21,26,21,17,90,62,32,30.15,30.02,16,2,16,0.00
2013-3-24,36,33,31,31,26,20,96,77,54,30.04,29.49,25,9,25,0.00
2013-3-25,35,33,31,33,31,30,97,94,87,29.94,29.47,17,4,18,0.24
2013-3-26,41,36,32,33,29,22,95,78,49,30.24,29.94,21,6,21,0.13
2013-3-27,42,37,33,31,27,21,88,67,44,30.33,30.23,23,8,23,0.00
2013-3-28,48,35,29,28,25,23,86,68,42,30.37,30.31,20,4,20,0.00
2013-3-29,53,40,26,32,28,23,92,65,40,30.38,30.26,16,2,16,0.00
2013-3-30,57,43,26,35,26,23,92,58,27,30.32,30.02,12,1,12,0.00
2013-3-31,55,47,41,47,39,28,93,76,51,30.02,29.80,18,3,19,0.08
2013-4-1,48,40,33,40,25,15,85,55,35,30.17,29.81,24,7,24,0.00
2013-4-2,43,34,25,20,16,14,78,49,32,30.32,30.17,21,4,21,0.00
2013-4-3,45,35,24,23,15,10,78,45,28,30.49,30.32,22,4,22,0.00
2013-4-4,54,39,29,26,17,13,59,43,22,30.45,30.05,12,3,13,0.00
2013-4-5,57,43,26,34,25,20,84,53,30,30.23,30.03,20,4,20,0.00
2013-4-6,63,46,30,24,20,13,66,39,18,30.33,29.99,16,5,16,0.00
2013-4-7,73,64,54,49,40,21,64,43,25,30.03,29.91,22,8,27,0.00
2013-4-8,73,63,51,53,51,48,91,66,44,30.03,29.91,29,6,29,0.00
2013-4-9,81,68,53,58,54,50,90,63,39,30.12,29.94,30,6,30,0.00
2013-4-10,83,71,60,64,59,55,88,67,49,29.99,29.82,29,8,30,0.00
2013-4-11,69,62,56,62,58,54,96,87,78,29.91,29.58,19,4,19,0.56
2013-4-12,59,49,42,58,44,34,97,82,65,29.96,29.52,24,6,24,0.34
2013-4-13,54,45,38,38,36,33,82,70,51,30.11,29.95,26,6,26,0.00
2013-4-14,66,50,34,42,37,32,91,65,36,30.19,29.98,17,4,17,0.00
2013-4-15,71,62,50,54,48,40,72,61,52,30.07,29.97,20,5,20,0.00
2013-4-16,78,65,57,65,56,51,98,75,56,30.21,30.01,26,6,26,0.95
2013-4-17,67,59,54,61,57,52,98,91,81,30.27,30.05,18,6,18,0.10
2013-4-18,86,72,60,63,58,52,92,64,31,30.07,29.68,28,8,28,0.00
2013-4-19,75,54,40,60,43,31,92,68,48,29.99,29.46,37,10,37,0.51
2013-4-20,47,40,34,33,28,24,93,64,42,30.47,29.99,34,7,34,0.02
2013-4-21,53,41,27,30,26,22,88,58,30,30.63,30.47,23,4,23,0.00
2013-4-22,69,54,37,42,34,25,67,48,32,30.48,30.21,16,3,16,0.00
2013-4-23,72,60,46,48,39,30,56,46,33,30.22,29.93,18,5,18,0.00
2013-4-24,65,53,37,56,45,34,95,76,51,30.25,29.81,28,7,28,0.76
2013-4-25,57,45,34,40,34,26,95,68,42,30.44,30.25,23,5,23,0.00
2013-4-26,62,47,30,38,32,28,92,59,31,30.54,30.41,14,2,14,0.00
2013-4-27,72,56,40,45,37,30,83,53,22,30.42,30.15,16,4,16,0.00
2013-4-28,65,58,53,58,54,45,97,86,61,30.15,29.88,15,4,15,0.66
2013-4-29,64,59,55,58,56,53,97,88,72,30.03,29.92,11,3,11,0.07
2013-4-30,76,57,47,58,52,47,98,85,49,30.13,30.03,12,2,13,0.00
2013-5-1,80,68,56,60,55,52,85,63,39,30.26,30.11,17,5,17,0.00
2013-5-2,75,67,58,56,53,49,74,62,48,30.30,30.15,17,4,17,0.00
2013-5-3,77,67,57,55,46,32,82,51,19,30.18,30.06,18,6,24,0.00
2013-5-4,72,63,54,48,43,38,66,49,40,30.12,30.02,22,7,22,0.00
2013-5-5,72,62,52,44,40,34,73,46,28,30.08,29.95,25,6,25,0.00
2013-5-6,66,60,57,58,48,36,93,66,37,30.03,29.97,14,4,14,0.15
2013-5-7,69,62,55,60,55,52,90,80,61,30.02,29.96,20,4,20,0.04
2013-5-8,72,62,54,56,53,51,91,73,51,30.02,29.94,16,3,16,0.00
2013-5-9,79,66,52,60,54,49,97,69,35,30.06,29.97,13,2,13,0.00
2013-5-10,74,64,59,63,60,55,96,85,66,30.01,29.83,32,4,32,1.21
2013-5-11,61,54,46,60,50,39,96,87,74,30.01,29.85,30,5,30,0.02
2013-5-12,53,46,38,40,34,28,93,63,41,30.18,30.00,25,6,25,0.00
2013-5-13,57,47,37,38,31,25,93,57,32,30.25,30.16,17,2,17,0.00
2013-5-14,76,49,39,56,39,34,84,71,37,30.22,29.86,24,2,24,0.00
2013-5-15,87,77,66,60,58,55,75,54,36,29.88,29.79,19,8,27,0.00
2013-5-16,77,69,64,65,61,55,95,77,51,30.01,29.83,20,2,20,0.27
2013-5-17,80,65,61,67,61,57,98,90,48,30.13,30.01,14,2,14,0.01
2013-5-18,79,69,61,65,60,56,91,75,58,30.12,30.01,15,4,15,0.01
2013-5-19,80,71,62,68,64,60,94,80,60,30.06,29.94,13,3,13,0.00
2013-5-20,86,71,65,72,67,64,98,86,53,30.05,29.91,17,3,17,0.00
2013-5-21,86,77,70,69,66,60,93,71,41,29.96,29.83,31,4,31,0.11
2013-5-22,80,72,64,65,62,60,93,71,54,29.89,29.76,24,5,24,0.16
2013-5-23,73,64,49,63,58,44,95,82,53,30.08,29.81,27,7,27,0.03
2013-5-24,58,50,44,45,39,34,88,66,45,30.37,30.08,22,6,22,0.00
2013-5-25,64,52,37,43,39,35,95,65,41,30.45,30.29,14,3,14,0.00
2013-5-26,70,56,39,44,35,27,92,53,22,30.39,30.26,13,2,13,0.00
2013-5-27,69,54,50,54,44,40,84,69,46,30.30,30.05,22,4,22,0.05
2013-5-28,84,75,62,64,60,54,82,62,44,30.08,29.97,26,7,26,0.00
2013-5-29,88,78,69,63,60,54,71,55,33,30.10,30.01,25,6,25,0.00
2013-5-30,89,78,66,67,63,60,88,62,40,30.19,30.05,17,4,17,0.00
2013-5-31,87,75,66,68,64,60,94,69,46,30.11,29.97,30,5,30,0.36
2013-6-1,84,76,66,69,66,64,95,74,55,30.01,29.81,27,7,27,0.50
2013-6-2,78,71,66,68,62,57,95,73,51,29.93,29.80,21,5,21,0.46
2013-6-3,68,62,56,60,54,45,83,74,57,30.11,29.93,15,4,15,0.00
2013-6-4,73,62,47,52,46,40,81,57,39,30.22,30.11,15,4,15,0.00
2013-6-5,82,69,55,62,53,46,75,58,42,30.16,29.91,15,4,15,0.00
2013-6-6,71,67,61,67,64,58,96,90,72,29.92,29.79,13,3,13,0.58
2013-6-7,70,61,56,59,56,53,96,84,63,29.94,29.84,17,5,17,0.00
2013-6-8,76,65,53,60,55,52,96,72,50,30.11,29.93,8,1,8,0.00
2013-6-9,84,73,64,66,61,54,85,69,39,30.14,29.97,14,4,14,0.01
2013-6-10,77,69,66,68,65,62,96,87,62,29.98,29.79,22,4,22,0.66
2013-6-11,84,72,62,67,64,61,96,76,50,29.98,29.86,17,4,17,0.00
2013-6-12,88,74,68,74,67,64,91,81,60,29.95,29.73,18,1,18,0.00
2013-6-13,81,70,65,72,62,53,96,76,47,29.91,29.59,34,6,34,0.94
2013-6-14,76,68,56,58,56,53,93,68,48,30.10,29.91,19,4,19,0.00
2013-6-15,80,69,53,62,58,52,96,70,44,30.17,30.01,11,2,11,0.00
2013-6-16,78,72,68,68,65,61,89,79,68,30.01,29.96,22,4,22,0.07
2013-6-17,85,74,66,71,67,64,96,81,52,30.01,29.91,13,3,13,0.00
2013-6-18,81,72,63,70,65,56,96,80,54,30.02,29.88,34,4,34,0.33
2013-6-19,78,67,55,57,52,43,92,62,30,30.18,30.02,13,3,13,0.00
2013-6-20,84,70,54,59,54,50,90,62,34,30.26,30.17,11,2,11,0.00
2013-6-21,87,67,59,64,58,56,91,75,36,30.27,30.16,15,2,15,0.00
2013-6-22,89,78,65,72,66,62,91,67,46,30.20,30.07,15,3,15,0.00
2013-6-23,89,78,66,71,66,62,95,70,45,30.17,30.05,16,3,16,0.00
2013-6-24,86,77,65,71,66,62,91,72,54,30.17,30.03,19,3,21,0.03
2013-6-25,91,79,68,74,70,65,92,73,52,30.09,29.90,23,5,23,0.00
2013-6-26,86,76,68,72,69,64,95,79,59,29.95,29.81,20,5,20,0.34
2013-6-27,85,74,66,72,69,65,97,84,60,29.84,29.68,19,3,19,0.37
2013-6-28,82,74,66,70,65,56,93,74,49,29.70,29.57,25,4,25,0.07
2013-6-29,80,69,62,66,62,59,92,80,59,29.72,29.59,18,3,18,0.00
2013-6-30,80,69,62,68,64,61,96,85,60,29.88,29.70,21,3,21,0.02
2013-7-1,82,72,66,68,65,62,92,79,51,29.96,29.85,14,4,14,0.03
2013-7-2,83,74,67,70,67,65,94,80,59,30.06,29.93,15,3,15,0.00
2013-7-3,83,75,68,71,68,66,95,80,60,30.16,30.05,13,2,14,0.00
2013-7-4,76,72,70,70,69,67,96,89,76,30.21,30.14,12,3,12,0.33
2013-7-5,79,71,67,70,68,66,97,90,71,30.19,30.11,11,2,11,0.82
2013-7-6,84,75,69,74,70,66,97,84,65,30.18,30.05,25,4,25,0.06
2013-7-7,81,73,66,69,66,61,94,79,60,30.15,30.05,13,3,14,0.00
2013-7-8,82,72,63,74,68,62,97,87,74,30.17,30.07,20,2,20,1.25
2013-7-9,88,75,70,76,71,68,98,89,66,30.11,30.00,42,4,42,1.08
2013-7-10,89,75,66,78,71,64,98,88,66,30.03,29.83,28,4,44,0.24
2013-7-11,77,70,61,67,63,56,97,79,54,30.05,29.96,15,4,17,0.00
2013-7-12,78,68,55,63,59,53,97,74,51,30.13,30.05,20,4,20,0.00
2013-7-13,83,73,62,69,65,60,93,76,56,30.20,30.11,15,4,15,0.00
2013-7-14,89,79,69,74,70,66,92,76,59,30.27,30.19,16,4,16,0.00
2013-7-15,91,83,75,74,71,68,87,69,50,30.34,30.25,9,2,9,0.00
2013-7-16,93,82,71,75,72,70,96,74,51,30.35,30.26,10,1,10,0.00
2013-7-17,92,83,72,76,72,68,95,72,47,30.33,30.18,11,2,11,0.00
2013-7-18,94,81,72,76,73,69,95,78,48,30.22,30.04,13,1,13,0.00
2013-7-19,91,81,74,78,73,68,93,77,55,30.06,29.91,21,4,21,0.00
2013-7-20,80,74,70,74,71,68,95,88,76,29.96,29.87,19,3,19,0.72
2013-7-21,85,74,68,75,70,67,97,88,67,30.00,29.92,7,1,8,0.21
2013-7-22,75,72,69,71,70,68,98,93,85,29.96,29.79,15,2,15,2.25
2013-7-23,86,75,67,76,70,67,99,86,60,29.84,29.70,15,3,20,0.12
2013-7-24,74,69,66,68,62,56,91,78,58,29.98,29.81,17,5,17,0.00
2013-7-25,77,61,52,57,53,49,95,78,43,30.12,30.03,13,2,13,0.00
2013-7-26,81,69,55,63,58,54,95,71,48,30.13,30.01,12,2,12,0.00
2013-7-27,74,68,64,67,64,61,95,87,74,30.01,29.86,16,3,16,0.26
2013-7-28,72,62,55,62,56,49,96,83,50,30.09,29.90,18,2,18,0.00
2013-7-29,76,64,55,59,55,52,90,74,48,30.23,30.08,16,3,16,0.00
2013-7-30,81,68,55,64,58,54,96,73,45,30.28,30.17,11,1,11,0.00
2013-7-31,74,69,65,66,64,63,94,86,75,30.17,29.98,13,2,15,0.01
2013-8-1,81,72,66,67,64,58,97,77,48,29.99,29.92,14,3,16,0.03
2013-8-2,80,70,58,65,61,55,98,74,49,30.04,29.96,15,2,15,0.01
2013-8-3,80,70,63,68,64,60,96,81,52,30.04,29.99,15,2,15,0.27
2013-8-4,76,67,59,60,57,52,97,73,46,30.16,30.04,17,4,18,0.00
2013-8-5,77,65,53,60,56,52,96,75,46,30.18,30.03,9,2,9,0.00
2013-8-6,81,72,62,64,61,58,91,70,48,30.05,29.97,11,2,11,0.00
2013-8-7,86,75,65,74,69,63,93,81,61,29.98,29.90,12,2,13,0.00
2013-8-8,86,74,70,75,71,69,98,91,67,30.00,29.91,18,2,18,1.59
2013-8-9,80,72,67,72,68,61,99,87,55,30.06,29.92,12,2,12,0.46
2013-8-10,83,72,65,68,66,64,97,80,57,30.13,30.06,7,1,9,0.00
2013-8-11,83,73,64,73,67,63,97,82,61,30.13,30.04,13,2,13,0.00
2013-8-12,86,69,61,70,64,60,98,86,53,30.10,29.90,12,1,12,0.07
2013-8-13,76,69,58,70,62,50,97,78,48,30.06,29.85,19,4,19,0.01
2013-8-14,68,59,51,52,50,46,93,74,53,30.21,30.06,14,2,14,0.00
2013-8-15,74,61,49,56,52,48,97,75,46,30.24,30.13,11,2,13,0.00
2013-8-16,76,65,54,58,54,52,95,71,46,30.20,30.16,14,2,14,0.00
2013-8-17,80,68,57,64,58,54,90,72,50,30.24,30.17,14,3,14,0.00
2013-8-18,72,62,58,66,60,56,96,90,77,30.24,30.15,11,1,11,0.00
2013-8-19,82,71,62,68,64,58,98,79,49,30.18,30.10,10,1,10,0.00
2013-8-20,85,71,58,69,62,58,97,76,45,30.23,30.14,9,1,9,0.00
2013-8-21,84,71,63,71,65,62,95,83,59,30.21,30.09,11,2,11,0.00
2013-8-22,85,73,63,72,67,62,97,82,57,30.16,30.03,27,3,27,0.18
2013-8-23,83,72,68,70,67,58,98,85,48,30.18,30.05,15,2,15,1.33
2013-8-24,84,70,58,64,59,55,92,69,46,30.32,30.18,11,2,11,0.00
2013-8-25,85,72,59,66,61,57,96,71,43,30.39,30.25,13,2,13,0.00
2013-8-26,87,73,58,71,65,57,95,76,51,30.29,30.08,14,2,14,0.00
2013-8-27,85,76,69,75,71,67,93,84,71,30.09,29.96,12,2,12,0.00
2013-8-28,87,80,74,76,73,71,93,80,65,29.97,29.85,16,4,16,0.00
2013-8-29,83,72,68,72,69,67,97,91,63,30.07,29.98,11,2,11,0.00
2013-8-30,88,76,64,73,68,64,98,80,56,30.04,29.86,13,1,13,0.00
2013-8-31,85,73,70,74,69,66,97,87,64,29.88,29.79,20,2,20,0.77
2013-9-1,85,76,69,72,70,67,98,82,62,29.86,29.77,12,2,12,0.00
2013-9-2,83,75,69,74,69,60,97,82,63,29.90,29.79,19,3,19,0.04
2013-9-3,69,62,55,60,55,52,93,77,63,30.10,29.90,17,4,17,0.00
2013-9-4,81,65,49,61,56,48,97,76,45,30.19,30.10,14,2,14,0.00
2013-9-5,79,68,57,65,58,48,97,72,42,30.25,30.14,15,3,15,0.00
2013-9-6,76,61,47,53,49,42,96,68,32,30.31,30.16,11,1,11,0.00
2013-9-7,84,67,50,65,57,49,96,73,49,30.16,29.98,12,2,12,0.00
2013-9-8,82,74,68,70,66,63,90,77,64,30.05,29.97,12,3,14,0.00
2013-9-9,88,75,62,72,66,60,94,75,52,30.09,29.99,17,4,17,0.00
2013-9-10,92,82,74,76,72,68,85,72,54,30.14,30.05,16,4,16,0.00
2013-9-11,89,79,71,75,72,66,93,79,56,30.17,30.02,23,3,23,0.18
2013-9-12,78,72,64,72,68,60,96,87,63,30.03,29.86,18,3,18,0.43
2013-9-13,64,59,51,60,51,47,91,75,60,30.13,29.91,20,5,20,0.00
2013-9-14,69,55,42,49,45,41,96,72,43,30.23,30.13,17,2,17,0.00
2013-9-15,75,60,44,60,51,42,96,75,46,30.22,30.07,13,2,13,0.01
2013-9-16,70,62,56,58,55,50,97,79,50,30.35,30.13,17,4,17,0.11
2013-9-17,72,60,48,56,51,46,95,76,49,30.39,30.25,11,3,12,0.00
2013-9-18,75,58,55,64,54,52,94,88,64,30.25,30.11,8,3,12,0.00
2013-9-19,72,66,63,68,65,62,98,95,85,30.15,30.03,6,2,8,0.12
2013-9-20,84,73,64,72,67,64,99,83,59,30.05,29.83,13,3,15,0.02
2013-9-21,72,66,56,67,60,49,98,82,54,29.89,29.71,21,2,21,1.12
2013-9-22,65,56,49,49,47,44,94,73,49,30.08,29.89,14,2,14,0.00
2013-9-23,62,48,41,50,44,40,97,87,54,30.20,30.08,16,1,16,0.00
2013-9-24,68,53,40,50,46,39,97,77,46,30.18,30.00,13,2,13,0.00
2013-9-25,71,57,45,55,50,44,97,80,52,30.01,29.92,12,1,12,0.01
2013-9-26,78,62,48,58,50,45,97,69,32,30.13,29.98,9,2,13,0.00
2013-9-27,76,62,44,57,51,43,96,71,42,30.23,30.13,12,1,12,0.00
2013-9-28,79,63,50,59,54,49,96,74,43,30.25,30.12,16,2,16,0.00
2013-9-29,74,64,54,61,57,53,95,81,57,30.13,30.02,13,2,13,0.00
2013-9-30,74,65,60,63,60,57,95,83,63,30.08,29.99,12,2,12,0.03
2013-10-1,80,66,54,64,58,53,98,79,49,30.13,30.04,10,1,14,0.01
2013-10-2,84,68,56,68,62,55,97,82,57,30.16,30.06,10,1,10,0.00
2013-10-3,79,70,66,69,66,64,97,87,67,30.12,30.05,20,2,20,0.01
2013-10-4,84,70,60,69,65,60,98,87,52,30.13,30.05,12,2,20,0.09
2013-10-5,82,72,64,72,67,63,96,84,61,30.10,29.98,18,2,18,0.08
2013-10-6,79,68,52,68,66,51,97,92,62,29.98,29.73,34,3,34,1.63
2013-10-7,61,53,46,52,46,43,97,79,52,30.22,29.83,19,4,19,0.43
2013-10-8,67,53,39,51,44,38,98,76,45,30.34,30.21,14,2,15,0.00
2013-10-9,70,55,45,50,45,43,95,72,38,30.34,30.23,15,3,15,0.00
2013-10-10,78,57,41,54,46,40,96,72,39,30.25,30.11,9,1,9,0.00
2013-10-11,76,60,44,56,50,43,95,71,38,30.16,30.06,14,2,14,0.00
2013-10-12,73,62,52,61,56,51,97,83,64,30.18,30.09,13,1,13,0.00
2013-10-13,71,62,56,62,58,54,95,87,72,30.33,30.17,14,2,14,0.00
2013-10-14,72,59,47,54,51,46,96,77,52,30.38,30.24,15,2,15,0.00
2013-10-15,70,59,48,63,56,46,98,89,76,30.26,29.99,10,2,10,0.00
2013-10-16,67,64,56,63,60,49,93,87,75,30.00,29.90,18,4,18,0.04
2013-10-17,56,49,40,50,46,39,98,88,76,30.02,29.88,15,2,15,0.22
2013-10-18,64,52,42,49,44,41,97,76,48,30.10,30.00,18,3,18,0.01
2013-10-19,51,46,40,47,43,39,95,89,76,30.04,29.85,19,3,19,0.14
2013-10-20,61,49,38,43,40,36,94,73,47,30.09,30.04,15,5,19,0.00
2013-10-21,66,54,40,49,40,37,87,61,36,30.08,29.92,21,4,22,0.00
2013-10-22,54,44,34,49,34,28,90,69,44,30.09,29.94,18,4,18,0.11
2013-10-23,46,40,34,38,36,32,96,87,63,30.08,29.84,23,4,23,0.47
2013-10-24,45,38,34,35,33,28,94,82,58,30.29,30.06,23,3,23,0.00
2013-10-25,49,38,28,35,30,27,96,75,45,30.48,30.29,16,2,16,0.00
2013-10-26,48,41,33,36,30,27,79,66,48,30.34,29.98,17,6,24,0.00
2013-10-27,56,37,28,39,32,28,96,85,45,30.18,30.09,12,0,12,0.00
2013-10-28,62,44,30,40,34,28,96,73,39,30.36,30.16,9,1,9,0.00
2013-10-29,59,47,33,43,38,32,97,75,47,30.44,30.28,8,1,8,0.00
2013-10-30,64,56,48,58,50,41,96,82,70,30.28,30.08,8,2,8,0.00
2013-10-31,66,63,59,61,58,57,96,85,73,30.08,29.39,34,8,34,0.40
2013-11-1,64,56,50,62,49,44,94,76,56,29.77,29.36,33,6,33,0.30
2013-11-2,53,49,44,44,41,37,88,74,58,30.10,29.76,16,5,16,0.00
2013-11-3,53,44,38,41,37,33,95,80,53,30.48,30.10,10,1,10,0.00
2013-11-4,55,44,34,40,34,30,85,69,51,30.52,30.39,18,5,18,0.00
2013-11-5,63,53,47,43,40,38,74,61,44,30.50,30.30,11,3,11,0.00
2013-11-6,69,58,46,58,47,36,96,69,45,30.30,29.99,17,6,24,0.40
2013-11-7,50,43,38,48,34,26,95,73,47,30.25,30.02,22,6,22,0.16
2013-11-8,46,38,32,35,32,29,94,80,53,30.42,30.23,17,2,17,0.00
2013-11-9,60,48,34,36,32,28,89,57,37,30.33,30.05,33,6,33,0.00
2013-11-10,48,43,29,39,34,26,91,71,49,30.39,30.10,23,6,28,0.00
2013-11-11,50,39,27,43,33,25,94,80,58,30.38,30.12,22,4,22,0.05
2013-11-12,33,29,25,31,24,20,96,81,68,30.65,30.28,20,6,20,0.00
2013-11-13,38,30,21,24,21,18,94,71,47,30.69,30.47,18,3,18,0.00
2013-11-14,52,38,30,26,22,19,71,54,28,30.47,30.23,17,6,21,0.00
2013-11-15,52,47,36,42,28,20,78,48,36,30.25,30.17,16,4,16,0.00
2013-11-16,61,53,46,54,48,41,89,82,76,30.23,29.99,18,4,18,0.00
2013-11-17,61,59,52,59,54,41,95,85,55,29.99,29.54,34,10,34,0.88
2013-11-18,52,45,36,42,36,27,85,69,49,30.22,29.79,28,8,28,0.00
2013-11-19,40,35,29,28,26,25,85,69,56,30.45,30.21,15,3,15,0.00
2013-11-20,49,37,27,31,27,24,87,68,48,30.45,30.33,21,5,21,0.00
2013-11-21,56,47,39,45,37,29,85,68,55,30.43,30.26,9,2,11,0.05
2013-11-22,52,48,36,51,45,30,97,90,76,30.40,30.19,24,5,24,0.31
2013-11-23,37,30,21,30,23,8,91,75,54,30.58,30.34,26,6,26,0.00
2013-11-24,25,20,15,15,10,4,83,65,46,30.73,30.57,18,4,18,0.00
2013-11-25,37,27,16,28,16,11,85,65,42,30.63,30.28,22,3,22,0.00
2013-11-26,33,31,30,32,30,28,97,94,85,30.29,29.95,7,1,7,0.01
2013-11-27,31,27,22,29,20,12,96,77,53,30.32,29.93,23,6,23,0.00
2013-11-28,31,26,19,24,19,15,93,77,62,30.51,30.32,15,3,15,0.00
2013-11-29,36,28,21,23,21,18,94,75,57,30.71,30.51,9,2,9,0.03
2013-11-30,44,33,25,31,26,20,84,75,58,30.64,30.26,12,3,12,0.03
2013-12-1,46,40,30,36,31,26,87,72,63,30.26,30.02,13,3,13,0.00
2013-12-2,48,39,33,39,35,31,93,85,70,30.02,29.88,8,1,8,0.04
2013-12-3,54,44,35,46,40,33,96,88,75,29.95,29.88,9,3,9,0.01
2013-12-4,63,54,44,54,49,42,91,82,72,29.98,29.82,14,4,14,0.00
2013-12-5,65,52,33,60,47,30,96,85,71,30.18,29.82,17,6,17,0.45
2013-12-6,33,31,26,31,29,24,96,92,89,30.43,30.15,11,4,15,0.08
2013-12-7,27,23,16,24,17,12,93,78,63,30.68,30.43,15,4,15,0.00
2013-12-8,30,23,16,30,20,12,97,87,78,30.65,30.09,20,6,20,0.00
2013-12-9,34,31,25,33,27,19,98,87,77,30.28,30.06,22,5,22,0.05
2013-12-10,27,22,18,20,17,14,93,81,66,30.42,30.20,24,5,24,0.00
2013-12-11,32,22,15,23,16,11,91,78,66,30.56,30.35,22,4,22,0.00
2013-12-12,20,16,11,12,7,2,90,69,50,30.61,30.41,16,4,16,0.00
2013-12-13,35,26,16,28,17,8,92,68,57,30.41,30.27,13,3,13,0.00
2013-12-14,38,33,30,37,32,28,98,96,92,30.30,29.77,16,5,16,0.52
2013-12-15,34,26,24,32,22,15,95,83,67,30.18,29.84,25,8,25,0.00
2013-12-16,28,24,20,27,21,18,95,88,77,30.25,30.08,16,4,16,0.00
2013-12-17,33,29,27,31,25,23,97,88,80,30.21,30.04,19,5,19,0.00
2013-12-18,34,27,24,25,21,19,91,79,55,30.33,30.14,16,4,16,0.00
2013-12-19,51,44,33,42,30,19,69,60,50,30.17,30.03,17,4,17,0.00
2013-12-20,58,52,49,54,41,32,94,66,47,30.03,29.89,18,7,20,0.05
2013-12-21,68,60,56,62,58,54,96,91,77,29.89,29.51,32,7,32,0.93
2013-12-22,68,56,43,62,51,40,95,84,70,30.06,29.50,31,8,31,0.43
2013-12-23,42,33,28,40,27,19,93,78,69,30.42,30.04,19,6,19,0.05
2013-12-24,28,21,12,23,16,6,90,79,70,30.65,30.39,20,6,20,0.00
2013-12-25,32,24,13,26,16,10,85,72,47,30.62,30.26,17,4,17,0.00
2013-12-26,37,32,25,27,23,20,84,70,51,30.42,30.24,24,6,24,0.00
2013-12-27,45,37,29,33,28,22,79,69,58,30.48,30.34,17,4,17,0.00
2013-12-28,52,42,36,35,30,27,76,62,51,30.34,30.08,19,5,19,0.00
2013-12-29,44,39,33,40,35,26,96,84,51,30.09,29.82,21,3,21,0.41
2013-12-30,33,27,24,29,22,19,88,79,71,30.30,30.03,21,4,21,0.00
2013-12-31,28,25,22,22,18,14,87,76,66,30.42,30.20,26,5,26,0.00
2014-1-1,40,31,22,30,25,18,89,79,63,30.40,30.11,12,2,12,0.00
2014-1-2,31,23,11,26,20,6,96,88,80,30.26,29.84,29,7,29,0.00